Happy Valentine's Day! 

Flight Track Log - Related Links

Times and Time Zones

All times are in EDT time to prevent confusion due to time zone crossing. See the N531K flight status page for this flight to view local times or setup timezone preferences in your user account.


Time Position Orientation Groundspeed Altitude Reporting Facility
EDT Latitude Longitude Course Direction KTS MPH feet Rate Location/Type
Sun 06:37:50 PM 26.6736 -80.2672 326° Northwest 240 276 6,500  Level Miami Center
Sun 06:38:50 PM 26.7014 -80.3283 297° West 246 283 9,000 2,650 Climbing Miami Center
Sun 06:39:50 PM 26.7581 -80.3975 313° West 257 296 11,800 2,700 Climbing Miami Center
Sun 06:40:50 PM 26.8344 -80.4325 338° Northwest 262 302 14,400 2,450 Climbing Miami Center
Sun 06:41:50 PM 26.9086 -80.4697 336° Northwest 280 322 16,700 2,050 Climbing Miami Center
Sun 06:42:00 PM 27.1919 -80.4981 326° Northwest  Level FlightAware Approximate
Sun 06:42:50 PM 26.9747 -80.5067 334° Northwest 294 338 18,500  Level Miami Center
Sun 06:43:50 PM 27.0550 -80.5489 335° Northwest 299 344 20,600 2,000 Climbing Miami Center
Sun 06:44:50 PM 27.1333 -80.5911 334° Northwest 304 350 22,500 1,850 Climbing Miami Center
Sun 06:45:50 PM 27.2178 -80.6358 335° Northwest 320 368 24,300 1,600 Climbing Miami Center
Sun 06:46:50 PM 27.3064 -80.6808 336° Northwest 331 381 25,700 1,400 Climbing Miami Center
Sun 06:47:50 PM 27.3947 -80.7281 335° Northwest 344 396 27,100 1,400 Climbing Miami Center
Sun 06:48:50 PM 27.4875 -80.7756 336° Northwest 349 402 28,500 1,500 Climbing Miami Center
Sun 06:49:50 PM 27.5903 -80.8308 335° Northwest 362 417 30,100 1,500 Climbing Miami Center
Sun 06:50:50 PM 27.6872 -80.8786 336° Northwest 362 417 31,500 1,350 Climbing Miami Center
Sun 06:51:50 PM 27.7817 -80.9289 335° Northwest 367 422 32,800 1,300 Climbing Miami Center
Sun 06:52:50 PM 27.8783 -80.9794 335° Northwest 372 428 34,100 1,250 Climbing Miami Center
Sun 06:53:50 PM 27.9708 -81.0297 334° Northwest 372 428 35,300 1,250 Climbing Miami Center
Sun 06:54:50 PM 28.0614 -81.0778 335° Northwest 367 422 36,600 1,300 Climbing Miami Center
Sun 06:55:50 PM 28.1539 -81.1258 335° Northwest 361 415 37,900 1,200 Climbing Miami Center
Sun 06:56:50 PM 28.2400 -81.1739 334° Northwest 355 409 39,000 550 Climbing Miami Center
Sun 06:57:50 PM 28.3181 -81.2169 334° Northwest 349 402 39,000 -50 Level Miami Center
Sun 06:58:50 PM 28.4269 -81.2708 336° Northwest 354 407 38,900 -50 Descending Miami Center
Sun 06:59:50 PM 28.5192 -81.3217 334° Northwest 366 421 38,900  Level Miami Center
Sun 07:01:10 PM 28.6750 -81.3497 351° North 385 443 38,900  Level Jacksonville Center
Sun 07:02:10 PM 28.7897 -81.3597 356° North 400 460 38,900  Level Jacksonville Center
Sun 07:03:10 PM 28.9069 -81.3722 355° North 415 478 38,900  Level Jacksonville Center
Sun 07:04:10 PM 29.0258 -81.3847 355° North 427 491 38,900  Level Jacksonville Center
Sun 07:05:10 PM 29.1472 -81.3947 356° North 422 486 38,900  Level Jacksonville Center
Sun 07:06:10 PM 29.2642 -81.4072 355° North 422 486 38,900  Level Jacksonville Center
Sun 07:07:10 PM 29.3853 -81.4172 356° North 428 493 38,900  Level Jacksonville Center
Sun 07:08:10 PM 29.4878 -81.4300 354° North 428 493 38,900  Level Jacksonville Center
Sun 07:09:10 PM 29.6089 -81.4403 356° North 423 487 38,900  Level Jacksonville Center
Sun 07:10:10 PM 29.7261 -81.4503 356° North 423 487 38,900  Level Jacksonville Center
Sun 07:11:10 PM 29.8408 -81.4606 356° North 423 487 38,900  Level Jacksonville Center
Sun 07:12:10 PM 29.9600 -81.4756 354° North 423 487 38,900  Level Jacksonville Center
Sun 07:13:10 PM 30.0769 -81.4789 359° North 423 487 38,900  Level Jacksonville Center
Sun 07:14:10 PM 30.2125 -81.4575 North 429 494 38,900  Level Jacksonville Center
Sun 07:15:10 PM 30.3375 -81.4414 North 441 507 38,900  Level Jacksonville Center
Sun 07:16:10 PM 30.4586 -81.4275 North 441 507 38,900  Level Jacksonville Center
Sun 07:17:10 PM 30.5794 -81.4111 North 441 507 38,900  Level Jacksonville Center
Sun 07:18:10 PM 30.6983 -81.3947 North 441 507 38,900  Level Jacksonville Center
Sun 07:19:10 PM 30.8192 -81.3806 North 441 507 38,900  Level Jacksonville Center
Sun 07:20:10 PM 30.9381 -81.3642 North 436 502 38,900  Level Jacksonville Center
Sun 07:21:10 PM 31.0569 -81.3478 North 436 502 38,900  Level Jacksonville Center
Sun 07:22:10 PM 31.1778 -81.3336 North 428 493 38,900  Level Jacksonville Center
Sun 07:23:10 PM 31.2967 -81.3172 North 421 484 38,900 50 Level Jacksonville Center
Sun 07:24:10 PM 31.4028 -81.3006 North 423 487 39,000 50 Climbing Jacksonville Center
Sun 07:25:10 PM 31.5342 -81.2839 North 428 493 39,000  Level Jacksonville Center
Sun 07:26:10 PM 31.6425 -81.2697 North 428 493 39,000  Level Jacksonville Center
Sun 07:27:10 PM 31.7739 -81.2503 North 421 484 39,000 -50 Level Jacksonville Center
Sun 07:28:10 PM 31.8800 -81.2339 North 429 494 38,900 -50 Descending Jacksonville Center
Sun 07:29:10 PM 31.9989 -81.2119 North 429 494 38,900  Level Jacksonville Center
Sun 07:30:10 PM 32.1086 -81.1414 29° Northeast 429 494 38,900  Level Jacksonville Center
Sun 07:31:10 PM 32.2203 -81.0778 26° Northeast 434 499 38,900 50 Level Jacksonville Center
Sun 07:32:10 PM 32.3425 -81.0067 26° Northeast 447 514 39,000  Climbing Jacksonville Center
Sun 07:33:10 PM 32.4397 -80.9456 28° Northeast 447 514 38,900 -50 Descending Jacksonville Center
Sun 07:34:10 PM 32.5492 -80.8792 27° Northeast 441 507 38,900  Level Jacksonville Center
Sun 07:35:10 PM 32.6589 -80.8125 27° Northeast 441 507 38,900  Level Jacksonville Center
Sun 07:36:10 PM 32.7664 -80.7483 27° Northeast 436 502 38,900  Level Jacksonville Center
Sun 07:37:10 PM 32.8717 -80.6864 26° Northeast 424 488 38,900  Level Jacksonville Center
Sun 07:38:10 PM 32.9792 -80.6219 27° Northeast 424 488 38,900  Level Jacksonville Center
Sun 07:39:10 PM 33.0864 -80.5572 27° Northeast 424 488 38,900  Level Jacksonville Center
Sun 07:40:10 PM 33.1958 -80.4897 27° Northeast 424 488 38,900  Level Jacksonville Center
Sun 07:41:10 PM 33.3050 -80.4222 27° Northeast 429 494 38,900  Level Jacksonville Center
Sun 07:42:10 PM 33.4164 -80.3519 28° Northeast 434 499 38,900  Level Jacksonville Center
Sun 07:43:10 PM 33.5256 -80.2839 27° Northeast 434 499 38,900  Level Jacksonville Center
Sun 07:44:10 PM 33.6389 -80.2158 27° Northeast 434 499 38,900  Level Jacksonville Center
Sun 07:45:10 PM 33.7461 -80.1475 28° Northeast 439 505 38,900  Level Jacksonville Center
Sun 07:46:10 PM 33.8572 -80.0792 27° Northeast 439 505 38,900  Level Jacksonville Center
Sun 07:47:10 PM 33.9642 -80.0131 27° Northeast 439 505 38,900  Level Jacksonville Center
Sun 07:48:10 PM 34.0733 -79.9444 27° Northeast 439 505 38,900 38 Level Jacksonville Center
Sun 07:49:48 PM 34.2444 -79.8400 27° Northeast 433 498 39,000 38 Climbing Washington Center
Sun 07:50:49 PM 34.3492 -79.7675 30° Northeast 439 505 39,000  Level Washington Center
Sun 07:51:47 PM 34.4581 -79.7000 27° Northeast 439 505 39,000 -51 Level Washington Center
Sun 07:52:47 PM 34.5669 -79.6297 28° Northeast 439 505 38,900 -50 Descending Washington Center
Sun 07:53:48 PM 34.6756 -79.5619 27° Northeast 439 505 38,900 49 Level Washington Center
Sun 07:54:49 PM 34.7842 -79.4914 28° Northeast 439 505 39,000 50 Climbing Washington Center
Sun 07:55:48 PM 34.8950 -79.4208 28° Northeast 439 505 39,000  Level Washington Center
Sun 07:56:49 PM 35.0058 -79.3525 27° Northeast 439 505 39,000  Level Washington Center
Sun 07:57:49 PM 35.1164 -79.2789 29° Northeast 439 505 39,000  Level Washington Center
Sun 07:58:47 PM 35.2228 -79.2125 27° Northeast 439 505 39,000  Level Washington Center
Sun 07:59:47 PM 35.3464 -79.1289 29° Northeast 446 513 39,000  Level Washington Center
Sun 08:00:49 PM 35.4419 -79.0694 27° Northeast 451 519 39,000 -49 Level Washington Center
Sun 08:01:49 PM 35.5589 -78.9928 28° Northeast 437 503 38,900  Descending Washington Center
Sun 08:02:47 PM 35.6675 -78.9208 28° Northeast 432 497 39,000  Climbing Washington Center
Sun 08:03:47 PM 35.7778 -78.8539 26° Northeast 432 497 38,900  Descending Washington Center
Sun 08:04:48 PM 35.8858 -78.7942 24° Northeast 432 497 39,000  Climbing Washington Center
Sun 08:05:48 PM 35.9981 -78.7294 25° Northeast 432 497 38,900 -50 Descending Washington Center
Sun 08:06:49 PM 36.1083 -78.6669 25° Northeast 432 497 38,900 50 Level Washington Center
Sun 08:07:49 PM 36.2164 -78.6017 26° Northeast 432 497 39,000  Climbing Washington Center
Sun 08:08:49 PM 36.3264 -78.5414 24° Northeast 427 491 38,900 -50 Descending Washington Center
Sun 08:09:48 PM 36.4364 -78.4758 26° Northeast 427 491 38,900  Level Washington Center
Sun 08:10:48 PM 36.5444 -78.4100 26° Northeast 427 491 38,900 50 Level Washington Center
Sun 08:11:49 PM 36.6586 -78.3469 24° Northeast 427 491 39,000  Climbing Washington Center
Sun 08:12:47 PM 36.7664 -78.2833 25° Northeast 427 491 38,900  Descending Washington Center
Sun 08:13:47 PM 36.8764 -78.2144 27° Northeast 427 491 39,000  Climbing Washington Center
Sun 08:14:47 PM 36.9778 -78.1528 26° Northeast 435 501 38,900 -50 Descending Washington Center
Sun 08:15:48 PM 37.0983 -78.0839 24° Northeast 435 501 38,900 49 Level Washington Center
Sun 08:16:49 PM 37.2100 -78.0197 25° Northeast 435 501 39,000  Climbing Washington Center
Sun 08:17:47 PM 37.3219 -77.9528 25° Northeast 435 501 38,900 -763 Descending Washington Center
Sun 08:18:47 PM 37.4339 -77.8856 25° Northeast 435 501 37,500 -2,100 Descending Washington Center
Sun 08:19:47 PM 37.5436 -77.8103 29° Northeast 435 501 34,700 -2,400 Descending Washington Center
Sun 08:20:47 PM 37.6264 -77.7392 34° Northeast 441 507 32,700 -1,750 Descending Washington Center
Sun 08:21:47 PM 37.7303 -77.6478 35° Northeast 430 495 31,200 -843 Descending Washington Center
Sun 08:22:48 PM 37.8233 -77.5608 36° Northeast 418 481 31,000 -541 Descending Washington Center
Sun 08:23:49 PM 37.9228 -77.4739 35° Northeast 418 481 30,100 -1,311 Descending Washington Center
Sun 08:24:47 PM 38.0158 -77.3839 37° Northeast 418 481 28,400 -1,780 Descending Washington Center
Sun 08:25:47 PM 38.1069 -77.3017 35° Northeast 412 474 26,600 -1,686 Descending Washington Center
Sun 08:26:48 PM 38.1978 -77.2192 36° Northeast 412 474 25,000 -1,289 Descending Washington Center
Sun 08:27:48 PM 38.2906 -77.1314 37° Northeast 412 474 24,000 -496 Descending Washington Center
Sun 08:28:49 PM 38.3792 -77.0511 35° Northeast 406 467 24,000  Level Washington Center
Sun 08:29:47 PM 38.4739 -76.9628 36° Northeast 406 467 24,000  Level Washington Center
Sun 08:30:47 PM 38.5625 -76.8794 36° Northeast 406 467 24,000 -49 Level Washington Center
Sun 08:31:49 PM 38.6531 -76.7933 37° Northeast 406 467 23,900 -1,050 Descending Washington Center
Sun 08:32:47 PM 38.7167 -76.6797 54° Northeast 394 453 21,900 -1,881 Descending Washington Center
Sun 08:33:47 PM 38.7450 -76.5444 75° East 381 438 20,200 -1,934 Descending Washington Center
Sun 08:34:48 PM 38.7731 -76.4117 75° East 381 438 18,000 5,311 Descending Washington Center
Sun 08:35:49 PM 38.8031 -76.2761 74° East 367 422 31,000 -1,462 Climbing Washington Center
Sun 08:36:47 PM 38.8222 -76.1725 77° East 345 397 15,100 -8,136 Descending Washington Center
Sun 08:37:47 PM 38.8500 -76.0581 73° East 335 386 15,000 -49 Descending Washington Center
Sun 08:38:49 PM 38.8647 -75.9461 80° East 329 379 15,000 -492 Level Washington Center
Sun 08:39:49 PM 38.8797 -75.8289 81° East 324 373 14,000 -1,017 Descending Washington Center
Sun 08:40:47 PM 38.8967 -75.7278 78° East 312 359 13,000 -706 Descending Washington Center
Sun 08:41:48 PM 38.9569 -75.6825 30° Northeast 257 296 12,600 -280 Descending Washington Center
Sun 08:44:00 PM 39.1333 -75.6667 North 254 292 12,100 -188 Descending Philadelphia TRACON
Sun 08:45:00 PM 39.2000 -75.6667 360° North 277 319 12,000 -50 Descending Philadelphia TRACON
Sun 08:46:00 PM 39.2833 -75.6667 360° North 270 311 12,000 -600 Level Philadelphia TRACON
Sun 08:47:00 PM 39.3500 -75.6500 11° North 260 299 10,800 -1,650 Descending Philadelphia TRACON
Sun 08:48:00 PM 39.4333 -75.6500 360° North 264 304 8,700 -2,150 Descending Philadelphia TRACON
Sun 08:49:00 PM 39.5000 -75.6500 360° North 275 316 6,500 -1,619 Descending Philadelphia TRACON
Sun 08:50:06 PM 39.5833 -75.6333 North 237 273 5,300 -667 Descending Philadelphia TRACON
Sun 08:51:06 PM 39.6500 -75.6333 360° North 205 236 5,100 -100 Descending Philadelphia TRACON
Sun 08:52:06 PM 39.7000 -75.6333 360° North 189 217 5,100 -48 Level Philadelphia TRACON
Sun 08:53:12 PM 39.7667 -75.6333 360° North 221 254 5,000 -571 Descending Philadelphia TRACON
Sun 08:54:12 PM 39.8167 -75.6333 360° North 209 241 3,900 -1,300 Descending Philadelphia TRACON
Sun 08:55:12 PM 39.8667 -75.6167 14° North 149 171 2,400 -750 Descending Philadelphia TRACON
Sun 08:56:12 PM 39.9000 -75.6167 360° North 125 144 2,400  Level Philadelphia TRACON
Sun 08:57:06 PM 39.9167 -75.6500 303° West 156 180 2,400  Level Philadelphia TRACON
Sun 08:58:06 PM 39.9500 -75.6833 323° Northwest 146 168 2,400 -50 Level Philadelphia TRACON
Sun 08:59:06 PM 39.9500 -75.7500 270° West 147 169 2,300 -300 Descending Philadelphia TRACON
Sun 09:00:06 PM 39.9667 -75.7833 303° West 136 157 1,800 -600 Descending Philadelphia TRACON
Sun 09:01:06 PM 39.9833 -75.8333 294° West 129 148 1,100 -522 Descending Philadelphia TRACON
Sun 09:02:01 PM 39.9833 -75.8667 270° West 125 144 800 -327 Descending Philadelphia TRACON

Login

Don't have an account? Register now (free) for customized features, flight alerts, and more!